createdAt,value
2018-06-16T00:02:07.049Z,75.40
2018-06-16T00:04:35.847Z,75.40
2018-06-16T00:07:04.616Z,75.50
2018-06-16T00:09:33.692Z,75.60
2018-06-16T00:12:02.382Z,75.80
2018-06-16T00:14:31.192Z,76.00
2018-06-16T00:16:59.994Z,76.20
2018-06-16T00:19:28.875Z,76.80
2018-06-16T00:21:57.803Z,77.60
2018-06-16T00:24:26.526Z,76.90
2018-06-16T00:26:55.349Z,77.30
2018-06-16T00:29:24.148Z,77.40
2018-06-16T00:31:52.730Z,77.20
2018-06-16T00:34:21.397Z,77.20
2018-06-16T00:36:50.071Z,78.10
2018-06-16T00:39:18.882Z,77.50
2018-06-16T00:41:47.615Z,77.70
2018-06-16T00:44:16.313Z,78.00
2018-06-16T00:46:45.114Z,78.20
2018-06-16T00:49:13.933Z,77.90
2018-06-16T00:51:42.772Z,78.00
2018-06-16T00:54:11.622Z,77.70
2018-06-16T00:56:40.348Z,77.40
2018-06-16T00:59:09.208Z,76.80
2018-06-16T01:01:38.261Z,76.80
2018-06-16T01:04:07.255Z,76.70
2018-06-16T01:06:36.173Z,76.70
2018-06-16T01:09:06.045Z,76.90
2018-06-16T01:11:34.953Z,77.10
2018-06-16T01:14:03.732Z,77.20
2018-06-16T01:16:32.527Z,77.40
2018-06-16T01:19:01.305Z,77.60
2018-06-16T01:21:30.117Z,77.80
2018-06-16T01:23:58.999Z,78.10
2018-06-16T01:26:27.815Z,78.30
2018-06-16T01:28:56.881Z,78.40
2018-06-16T01:31:25.771Z,78.80
2018-06-16T01:33:54.536Z,78.80
2018-06-16T01:36:23.453Z,78.70
2018-06-16T01:38:52.178Z,78.80
2018-06-16T01:43:49.659Z,78.90
2018-06-16T01:46:18.714Z,78.80
2018-06-16T01:48:47.705Z,79.10
2018-06-16T01:51:16.322Z,79.20
2018-06-16T01:53:45.085Z,79.20
2018-06-16T01:56:13.917Z,79.50
2018-06-16T01:58:42.895Z,79.80
2018-06-16T02:01:11.780Z,80.00
2018-06-16T02:06:15.797Z,80.00
2018-06-16T02:08:44.639Z,79.90
2018-06-16T02:11:13.493Z,79.90
2018-06-16T02:13:42.368Z,79.80
2018-06-16T02:16:11.175Z,80.50
2018-06-16T02:18:39.825Z,80.00
2018-06-16T02:21:08.752Z,80.20
2018-06-16T02:23:37.604Z,80.40
2018-06-16T02:26:06.355Z,80.30
2018-06-16T02:28:35.185Z,80.50
2018-06-16T02:31:04.075Z,80.60
2018-06-16T02:33:38.769Z,80.50
2018-06-16T02:36:07.581Z,80.50
2018-06-16T02:38:36.791Z,80.70
2018-06-16T02:41:05.819Z,80.90
2018-06-16T02:43:34.719Z,80.90
2018-06-16T02:46:03.775Z,80.90
2018-06-16T02:48:33.003Z,81.20
2018-06-16T02:51:01.701Z,81.00
2018-06-16T02:53:30.491Z,81.20
2018-06-16T02:55:59.551Z,81.40
2018-06-16T02:58:28.604Z,81.50
2018-06-16T03:00:57.453Z,81.40
2018-06-16T03:03:26.222Z,81.30
2018-06-16T03:05:55.001Z,81.30
2018-06-16T03:08:23.721Z,81.30
2018-06-16T03:10:52.523Z,81.40
2018-06-16T03:13:21.248Z,81.40
2018-06-16T03:15:49.937Z,81.40
2018-06-16T03:18:18.848Z,81.30
2018-06-16T03:20:47.661Z,81.50
2018-06-16T03:23:16.308Z,81.40
2018-06-16T03:25:45.240Z,81.40
2018-06-16T03:30:42.718Z,81.60
2018-06-16T03:33:11.437Z,81.70
2018-06-16T03:35:40.209Z,81.70
2018-06-16T03:38:08.956Z,81.70
2018-06-16T03:40:37.861Z,81.40
2018-06-16T03:43:06.954Z,81.90
2018-06-16T03:45:35.746Z,82.00
2018-06-16T03:48:04.685Z,82.00
2018-06-16T03:50:33.368Z,82.20
2018-06-16T03:53:02.196Z,82.10
2018-06-16T03:55:30.913Z,82.30
2018-06-16T03:57:59.702Z,82.20
2018-06-16T04:00:28.493Z,81.80
2018-06-16T04:02:57.352Z,81.70
2018-06-16T04:05:26.431Z,81.50
2018-06-16T04:07:55.361Z,81.50
2018-06-16T04:10:24.229Z,81.70
2018-06-16T04:12:52.903Z,81.80
2018-06-16T04:15:21.861Z,82.10
2018-06-16T04:17:50.579Z,82.30
2018-06-16T04:20:19.388Z,82.50
2018-06-16T04:22:48.411Z,82.30
2018-06-16T04:25:17.314Z,82.20
2018-06-16T04:27:46.090Z,82.10
2018-06-16T04:30:14.957Z,82.10
2018-06-16T04:32:43.745Z,81.70
2018-06-16T04:35:12.837Z,81.50
2018-06-16T04:37:41.777Z,81.40
2018-06-16T04:40:10.492Z,81.50
2018-06-16T04:42:39.273Z,81.90
2018-06-16T04:45:08.228Z,82.00
2018-06-16T04:47:37.018Z,82.00
2018-06-16T04:50:06.093Z,82.20
2018-06-16T04:52:34.841Z,82.40
2018-06-16T04:55:03.763Z,82.50
2018-06-16T04:57:32.888Z,82.60
2018-06-16T05:00:01.598Z,82.60
2018-06-16T05:02:30.220Z,82.80
2018-06-16T05:04:59.118Z,82.60
2018-06-16T05:07:27.913Z,82.20
2018-06-16T05:09:56.744Z,81.90
2018-06-16T05:12:25.620Z,81.90
2018-06-16T05:17:22.657Z,82.00
2018-06-16T05:19:51.650Z,81.40
2018-06-16T05:22:20.328Z,81.20
2018-06-16T05:24:49.249Z,81.00
2018-06-16T05:27:18.017Z,80.50
2018-06-16T05:29:46.996Z,81.00
2018-06-16T05:32:15.773Z,81.00
2018-06-16T05:34:44.688Z,80.70
2018-06-16T05:37:13.577Z,80.70
2018-06-16T05:39:42.289Z,80.90
2018-06-16T05:42:11.005Z,80.60
2018-06-16T05:44:39.714Z,80.50
2018-06-16T05:47:08.407Z,80.60
2018-06-16T05:49:37.214Z,80.00
2018-06-16T05:52:05.912Z,79.70
2018-06-16T05:54:34.710Z,79.60
2018-06-16T05:57:03.479Z,79.80
2018-06-16T05:59:32.193Z,79.70
2018-06-16T06:02:01.159Z,79.60
2018-06-16T06:04:29.873Z,79.20
2018-06-16T06:06:58.663Z,79.10
2018-06-16T06:09:27.513Z,79.30
2018-06-16T06:11:56.517Z,78.90
2018-06-16T06:14:25.407Z,78.90
2018-06-16T06:16:54.141Z,79.00
2018-06-16T06:19:22.985Z,79.00
2018-06-16T06:21:51.750Z,78.70
2018-06-16T06:24:20.664Z,78.20
2018-06-16T06:26:49.630Z,78.10
2018-06-16T06:29:18.653Z,78.20
2018-06-16T06:31:47.336Z,78.30
2018-06-16T06:34:16.076Z,78.00
2018-06-16T06:36:44.944Z,77.70
2018-06-16T06:39:39.906Z,77.90
2018-06-16T06:42:08.813Z,77.90
2018-06-16T06:44:37.638Z,77.70
2018-06-16T06:47:06.704Z,78.10
2018-06-16T06:49:35.406Z,78.50
2018-06-16T06:52:04.400Z,77.40
2018-06-16T06:54:33.368Z,77.20
2018-06-16T06:57:02.160Z,77.00
2018-06-16T06:59:30.768Z,76.90
2018-06-16T07:01:59.826Z,77.00
2018-06-16T07:04:28.736Z,76.20
2018-06-16T07:06:57.328Z,76.00
2018-06-16T07:09:26.159Z,75.60
2018-06-16T07:11:54.942Z,75.60
2018-06-16T07:14:23.994Z,76.10
2018-06-16T07:16:52.878Z,75.10
2018-06-16T07:19:21.769Z,75.00
2018-06-16T07:21:50.557Z,74.70
2018-06-16T07:24:19.461Z,74.70
2018-06-16T07:26:48.957Z,74.50
2018-06-16T07:29:17.894Z,73.90
2018-06-16T07:31:46.680Z,73.90
2018-06-16T07:34:15.351Z,73.50
2018-06-16T07:36:44.129Z,73.20
2018-06-16T07:39:13.003Z,73.80
2018-06-16T07:41:41.804Z,73.20
2018-06-16T07:44:10.525Z,72.90
2018-06-16T07:49:07.572Z,72.80
2018-06-16T07:51:36.203Z,70.80
2018-06-16T07:54:05.018Z,71.30
2018-06-16T07:56:33.929Z,70.90
2018-06-16T07:59:02.697Z,71.70
2018-06-16T08:01:31.701Z,72.10
2018-06-16T08:04:00.969Z,71.90
2018-06-16T08:06:29.987Z,71.50
2018-06-16T08:08:59.115Z,70.80
2018-06-16T08:11:27.937Z,70.10
2018-06-16T08:13:56.561Z,70.80
2018-06-16T08:16:25.554Z,70.40
2018-06-16T08:18:54.357Z,70.20
2018-06-16T08:21:23.231Z,69.90
2018-06-16T08:23:52.151Z,69.50
2018-06-16T08:26:20.977Z,68.90
2018-06-16T08:31:18.594Z,68.60
2018-06-16T08:33:47.333Z,68.60
2018-06-16T08:36:16.272Z,68.00
2018-06-16T08:38:44.969Z,66.70
2018-06-16T08:41:13.592Z,67.70
2018-06-16T08:43:42.265Z,67.20
2018-06-16T08:46:10.907Z,67.60
2018-06-16T08:48:39.619Z,66.10
2018-06-16T08:51:08.297Z,65.40
2018-06-16T08:53:37.196Z,65.00
2018-06-16T08:56:06.195Z,65.60
2018-06-16T08:58:35.277Z,64.60
2018-06-16T09:01:04.492Z,63.40
2018-06-16T09:03:33.452Z,63.80
2018-06-16T09:06:02.173Z,62.20
2018-06-16T09:08:31.186Z,62.30
2018-06-16T09:11:00.083Z,60.90
2018-06-16T09:13:28.977Z,61.00
2018-06-16T09:15:57.613Z,60.30
2018-06-16T09:18:26.400Z,60.50
2018-06-16T09:20:55.288Z,59.60
2018-06-16T09:23:24.176Z,58.90
2018-06-16T09:25:53.050Z,57.60
2018-06-16T09:28:22.232Z,58.00
2018-06-16T09:30:51.038Z,57.20
2018-06-16T09:33:19.911Z,58.10
2018-06-16T09:35:49.026Z,58.10
2018-06-16T09:38:17.937Z,56.90
2018-06-16T09:40:46.653Z,56.60
2018-06-16T09:43:15.425Z,55.50
2018-06-16T09:45:44.139Z,55.90
2018-06-16T09:48:12.822Z,55.70
2018-06-16T09:50:41.783Z,57.00
2018-06-16T09:53:11.689Z,54.60
2018-06-16T09:55:40.387Z,54.70
2018-06-16T09:58:09.317Z,54.10
2018-06-16T10:00:40.023Z,54.20
2018-06-16T10:03:09.530Z,53.90
2018-06-16T10:05:38.410Z,52.10
2018-06-16T10:08:07.321Z,50.50
2018-06-16T10:10:36.184Z,51.20
2018-06-16T10:13:04.973Z,51.30
2018-06-16T10:15:33.797Z,51.20
2018-06-16T10:18:03.004Z,51.40
2018-06-16T10:20:31.985Z,49.60
2018-06-16T10:23:01.082Z,50.80
2018-06-16T10:25:29.881Z,50.20
2018-06-16T10:27:58.733Z,50.40
2018-06-16T10:30:27.446Z,52.50
2018-06-16T10:32:56.312Z,51.60
2018-06-16T10:35:25.134Z,52.80
2018-06-16T10:37:53.889Z,54.30
2018-06-16T10:40:22.504Z,51.40
2018-06-16T10:42:51.671Z,54.20
2018-06-16T10:45:20.569Z,53.50
2018-06-16T10:47:49.317Z,50.50
2018-06-16T10:50:17.971Z,48.50
2018-06-16T10:52:47.028Z,48.20
2018-06-16T10:55:16.123Z,47.50
2018-06-16T10:57:44.945Z,49.40
2018-06-16T11:00:13.609Z,47.50
2018-06-16T11:02:42.336Z,49.70
2018-06-16T11:05:11.084Z,47.90
2018-06-16T11:07:39.979Z,46.80
2018-06-16T11:10:08.810Z,47.80
2018-06-16T11:12:37.646Z,49.00
2018-06-16T11:15:06.769Z,49.30
2018-06-16T11:17:35.761Z,48.70
2018-06-16T11:20:04.573Z,48.80
2018-06-16T11:22:33.389Z,47.70
2018-06-16T11:25:02.369Z,48.50
2018-06-16T11:27:31.036Z,48.70
2018-06-16T11:29:59.913Z,48.10
2018-06-16T11:32:28.700Z,47.90
2018-06-16T11:34:57.561Z,47.30
2018-06-16T11:37:26.245Z,47.00
2018-06-16T11:39:54.986Z,46.10
2018-06-16T11:42:23.961Z,46.70
2018-06-16T11:44:52.745Z,46.20
2018-06-16T11:47:21.422Z,47.20
2018-06-16T11:49:50.089Z,47.30
2018-06-16T11:52:18.804Z,48.40
2018-06-16T11:54:47.541Z,46.80
2018-06-16T11:57:16.186Z,47.10
2018-06-16T12:02:13.477Z,47.00
2018-06-16T12:04:42.325Z,46.80
2018-06-16T12:07:11.131Z,44.50
2018-06-16T12:09:39.964Z,44.40
2018-06-16T12:12:08.692Z,44.20
2018-06-16T12:14:37.603Z,44.30
2018-06-16T12:17:06.562Z,45.00
2018-06-16T12:19:35.351Z,45.70
2018-06-16T12:22:04.348Z,46.10
2018-06-16T12:24:33.172Z,45.40
2018-06-16T12:27:01.937Z,45.40
2018-06-16T12:29:30.711Z,45.10
2018-06-16T12:31:59.400Z,44.80
2018-06-16T12:34:28.050Z,44.00
2018-06-16T12:36:56.777Z,43.70
2018-06-16T12:39:25.696Z,44.10
2018-06-16T12:41:54.758Z,43.90
2018-06-16T12:44:23.497Z,44.40
2018-06-16T12:46:52.368Z,44.70
2018-06-16T12:49:21.203Z,45.40
2018-06-16T12:51:50.222Z,44.20
2018-06-16T12:54:18.996Z,44.20
2018-06-16T12:56:47.833Z,44.20
2018-06-16T12:59:16.766Z,44.90
2018-06-16T13:01:45.796Z,43.50
2018-06-16T13:04:14.501Z,42.60
2018-06-16T13:06:43.363Z,42.70
2018-06-16T13:09:12.355Z,43.30
2018-06-16T13:11:41.385Z,42.80
2018-06-16T13:14:10.219Z,43.30
2018-06-16T13:16:38.867Z,43.70
2018-06-16T13:19:07.716Z,44.10
2018-06-16T13:21:36.512Z,43.70
2018-06-16T13:24:05.333Z,44.10
2018-06-16T13:26:34.079Z,47.10
2018-06-16T13:29:03.077Z,48.30
2018-06-16T13:31:31.968Z,47.30
2018-06-16T13:34:00.861Z,47.40
2018-06-16T13:36:29.704Z,47.60
2018-06-16T13:38:58.641Z,48.00
2018-06-16T13:41:27.463Z,47.70
2018-06-16T13:43:56.230Z,47.80
2018-06-16T13:46:24.921Z,47.60
2018-06-16T13:48:54.033Z,47.60
2018-06-16T13:51:22.757Z,47.30
2018-06-16T13:53:51.509Z,47.60
2018-06-16T13:56:20.252Z,47.40
2018-06-16T13:58:48.965Z,47.80
2018-06-16T14:01:17.792Z,47.70
2018-06-16T14:03:46.567Z,47.80
2018-06-16T14:06:15.318Z,47.80
2018-06-16T14:08:44.212Z,47.90
2018-06-16T14:11:12.961Z,48.00
2018-06-16T14:13:41.817Z,48.00
2018-06-16T14:16:10.608Z,48.30
2018-06-16T14:18:39.568Z,48.20
2018-06-16T14:21:08.460Z,48.10
2018-06-16T14:23:37.186Z,48.30
2018-06-16T14:26:06.042Z,48.30
2018-06-16T14:28:34.902Z,49.10
2018-06-16T14:31:03.962Z,49.20
2018-06-16T14:33:32.917Z,49.00
2018-06-16T14:36:01.612Z,49.60
2018-06-16T14:38:30.287Z,49.90
2018-06-16T14:40:59.561Z,49.50
2018-06-16T14:43:28.304Z,49.80
2018-06-16T14:45:57.168Z,49.80
2018-06-16T14:48:25.958Z,49.70
2018-06-16T14:50:54.879Z,48.90
2018-06-16T14:53:23.694Z,49.10
2018-06-16T14:55:52.598Z,49.10
2018-06-16T14:58:25.181Z,48.90
2018-06-16T15:00:54.430Z,48.60
2018-06-16T15:03:23.293Z,48.90
2018-06-16T15:05:52.476Z,48.00
2018-06-16T15:08:21.408Z,48.70
2018-06-16T15:10:51.200Z,48.40
2018-06-16T15:13:20.044Z,48.10
2018-06-16T15:18:17.465Z,46.80
2018-06-16T15:20:46.603Z,47.10
2018-06-16T15:23:15.688Z,47.50
2018-06-16T15:25:44.651Z,47.40
2018-06-16T15:28:13.422Z,46.20
2018-06-16T15:30:42.125Z,46.00
2018-06-16T15:35:40.318Z,45.40
2018-06-16T15:38:08.926Z,45.10
2018-06-16T15:40:37.664Z,44.70
2018-06-16T15:43:06.526Z,45.00
2018-06-16T15:45:35.312Z,45.10
2018-06-16T15:48:04.260Z,45.10
2018-06-16T15:50:33.141Z,45.30
2018-06-16T15:53:01.921Z,45.00
2018-06-16T15:55:30.590Z,44.60
2018-06-16T15:57:59.446Z,44.30
2018-06-16T16:00:28.321Z,44.50
2018-06-16T16:02:57.097Z,45.10
2018-06-16T16:05:25.888Z,44.40
2018-06-16T16:07:54.560Z,44.20
2018-06-16T16:10:23.384Z,44.30
2018-06-16T16:12:52.187Z,44.10
2018-06-16T16:15:21.060Z,44.10
2018-06-16T16:17:49.936Z,43.30
2018-06-16T16:20:18.852Z,43.40
2018-06-16T16:22:47.529Z,43.30
2018-06-16T16:25:16.485Z,43.50
2018-06-16T16:27:45.397Z,43.40
2018-06-16T16:30:14.290Z,43.60
2018-06-16T16:32:43.038Z,44.00
2018-06-16T16:35:11.899Z,43.90
2018-06-16T16:37:40.729Z,44.00
2018-06-16T16:40:09.571Z,44.10
2018-06-16T16:42:38.338Z,44.20
2018-06-16T16:45:07.739Z,44.00
2018-06-16T16:47:36.529Z,44.20
2018-06-16T16:50:05.366Z,44.50
2018-06-16T16:52:34.104Z,45.00
2018-06-16T16:55:03.132Z,44.70
2018-06-16T16:57:32.227Z,45.00
2018-06-16T17:00:01.084Z,44.90
2018-06-16T17:02:29.799Z,45.10
2018-06-16T17:04:58.661Z,44.90
2018-06-16T17:07:27.353Z,44.80
2018-06-16T17:09:56.342Z,44.80
2018-06-16T17:12:25.061Z,44.10
2018-06-16T17:14:53.736Z,44.10
2018-06-16T17:17:22.389Z,44.60
2018-06-16T17:19:51.471Z,44.30
2018-06-16T17:22:20.176Z,44.10
2018-06-16T17:24:48.772Z,44.30
2018-06-16T17:27:17.725Z,44.70
2018-06-16T17:29:46.552Z,44.40
2018-06-16T17:32:15.373Z,44.80
2018-06-16T17:34:44.156Z,44.80
2018-06-16T17:37:13.050Z,45.20
2018-06-16T17:42:10.494Z,47.70
2018-06-16T17:44:39.119Z,47.80
2018-06-16T17:47:08.301Z,48.60
2018-06-16T17:49:37.270Z,49.70
2018-06-16T17:52:06.242Z,49.30
2018-06-16T17:54:35.051Z,49.80
2018-06-16T17:57:03.945Z,50.00
2018-06-16T17:59:32.733Z,50.00
2018-06-16T18:02:01.622Z,49.80
2018-06-16T18:04:30.530Z,50.10
2018-06-16T18:06:59.334Z,49.20
2018-06-16T18:09:28.092Z,49.40
2018-06-16T18:11:56.997Z,49.60
2018-06-16T18:14:25.832Z,49.50
2018-06-16T18:16:54.611Z,50.20
2018-06-16T18:19:23.390Z,51.00
2018-06-16T18:21:52.169Z,51.30
2018-06-16T18:24:20.822Z,50.50
2018-06-16T18:26:49.614Z,51.30
2018-06-16T18:29:18.299Z,50.30
2018-06-16T18:31:47.194Z,50.70
2018-06-16T18:34:15.909Z,51.10
2018-06-16T18:36:44.601Z,51.40
2018-06-16T18:39:13.457Z,51.50
2018-06-16T18:41:42.346Z,51.60
2018-06-16T18:44:11.065Z,51.70
2018-06-16T18:46:39.928Z,51.80
2018-06-16T18:49:08.668Z,52.50
2018-06-16T18:51:37.810Z,52.50
2018-06-16T18:54:07.063Z,52.50
2018-06-16T18:56:35.925Z,52.50
2018-06-16T18:59:04.947Z,52.40
2018-06-16T19:01:33.733Z,52.50
2018-06-16T19:04:02.502Z,52.50
2018-06-16T19:06:31.215Z,52.60
2018-06-16T19:09:00.000Z,52.50
2018-06-16T19:11:28.836Z,52.70
2018-06-16T19:13:57.574Z,53.30
2018-06-16T19:16:26.451Z,53.90
2018-06-16T19:18:55.339Z,54.10
2018-06-16T19:21:24.266Z,54.30
2018-06-16T19:23:52.873Z,54.70
2018-06-16T19:26:21.544Z,54.70
2018-06-16T19:28:50.360Z,55.50
2018-06-16T19:31:18.996Z,55.30
2018-06-16T19:36:16.418Z,55.00
2018-06-16T19:38:45.206Z,54.90
2018-06-16T19:41:14.020Z,55.20
2018-06-16T19:43:42.705Z,55.40
2018-06-16T19:46:11.645Z,55.40
2018-06-16T19:48:40.672Z,55.30
2018-06-16T19:51:09.354Z,55.90
2018-06-16T19:53:38.158Z,55.30
2018-06-16T19:56:07.034Z,56.20
2018-06-16T19:58:35.925Z,56.20
2018-06-16T20:01:04.715Z,56.40
2018-06-16T20:03:33.709Z,56.70
2018-06-16T20:06:02.496Z,57.20
2018-06-16T20:08:31.208Z,57.50
2018-06-16T20:11:00.083Z,57.50
2018-06-16T20:13:28.878Z,58.40
2018-06-16T20:15:57.641Z,58.10
2018-06-16T20:18:26.390Z,58.20
2018-06-16T20:20:55.236Z,58.00
2018-06-16T20:23:24.013Z,58.80
2018-06-16T20:25:52.905Z,58.70
2018-06-16T20:28:21.899Z,58.80
2018-06-16T20:30:50.620Z,58.80
2018-06-16T20:33:19.415Z,59.00
2018-06-16T20:35:48.320Z,59.30
2018-06-16T20:38:17.003Z,59.30
2018-06-16T20:40:45.656Z,59.00
2018-06-16T20:43:14.637Z,58.90
2018-06-16T20:45:43.538Z,59.10
2018-06-16T20:48:12.418Z,59.30
2018-06-16T20:50:41.446Z,59.90
2018-06-16T20:53:10.322Z,60.70
2018-06-16T20:55:38.992Z,61.40
2018-06-16T20:58:07.818Z,61.90
2018-06-16T21:00:36.484Z,62.10
2018-06-16T21:03:05.407Z,61.70
2018-06-16T21:08:02.944Z,62.30
2018-06-16T21:10:31.603Z,63.40
2018-06-16T21:13:01.126Z,63.00
2018-06-16T21:15:29.916Z,63.00
2018-06-16T21:17:58.605Z,63.40
2018-06-16T21:20:27.700Z,63.50
2018-06-16T21:22:56.621Z,63.50
2018-06-16T21:25:25.386Z,63.90
2018-06-16T21:27:54.062Z,64.00
2018-06-16T21:30:22.959Z,64.20
2018-06-16T21:32:51.848Z,64.60
2018-06-16T21:35:20.943Z,65.00
2018-06-16T21:37:49.762Z,65.20
2018-06-16T21:40:18.551Z,65.30
2018-06-16T21:42:47.289Z,66.10
2018-06-16T21:45:16.112Z,67.00
2018-06-16T21:47:45.092Z,67.60
2018-06-16T21:50:14.085Z,67.50
2018-06-16T21:52:42.939Z,67.40
2018-06-16T21:55:11.823Z,67.10
2018-06-16T21:57:40.627Z,67.70
2018-06-16T22:00:12.931Z,67.60
2018-06-16T22:02:42.487Z,67.90
2018-06-16T22:05:11.166Z,67.90
2018-06-16T22:07:40.440Z,68.40
2018-06-16T22:10:09.787Z,68.20
2018-06-16T22:12:38.924Z,68.60
2018-06-16T22:15:07.651Z,68.30
2018-06-16T22:17:36.560Z,68.20
2018-06-16T22:22:34.855Z,68.60
2018-06-16T22:27:32.100Z,69.20
2018-06-16T22:32:29.137Z,70.00
2018-06-16T22:34:58.124Z,70.60
2018-06-16T22:37:26.808Z,71.30
2018-06-16T22:39:55.646Z,70.80
2018-06-16T22:42:24.331Z,70.80
2018-06-16T22:44:53.310Z,70.50
2018-06-16T22:47:21.967Z,70.30
2018-06-16T22:49:50.855Z,70.20
2018-06-16T22:52:19.674Z,70.30
2018-06-16T22:54:48.397Z,70.40
2018-06-16T22:57:17.532Z,70.40
2018-06-16T22:59:46.419Z,70.20
2018-06-16T23:02:15.348Z,70.40
2018-06-16T23:04:44.200Z,70.50
2018-06-16T23:07:13.093Z,70.60
2018-06-16T23:09:41.810Z,70.90
2018-06-16T23:12:10.782Z,71.30
2018-06-16T23:14:39.891Z,71.50
2018-06-16T23:17:08.861Z,70.60
2018-06-16T23:19:37.750Z,70.60
2018-06-16T23:22:06.406Z,70.90
2018-06-16T23:24:35.070Z,71.30
2018-06-16T23:27:04.017Z,71.70
2018-06-16T23:29:32.641Z,72.10
2018-06-16T23:32:01.537Z,72.50
2018-06-16T23:34:30.228Z,73.10
2018-06-16T23:36:58.925Z,73.60
2018-06-16T23:41:56.885Z,73.20
2018-06-16T23:44:25.984Z,73.00
2018-06-16T23:46:55.044Z,73.00
2018-06-16T23:49:23.995Z,73.20
2018-06-16T23:51:52.944Z,73.10
2018-06-16T23:54:21.854Z,73.10
2018-06-16T23:56:50.774Z,73.40
2018-06-16T23:59:19.677Z,73.60
